sensor_id;sensor_type;location;lat;lon;timestamp;pressure;altitude;pressure_sealevel;temperature;humidity
4814;BME280;15375;48.540;9.268;2023-01-26T00:00:54;97863.34;;;0.95;100.00
4814;BME280;15375;48.540;9.268;2023-01-26T00:03:21;97851.75;;;0.79;100.00
4814;BME280;15375;48.540;9.268;2023-01-26T00:05:46;97866.25;;;0.90;100.00
4814;BME280;15375;48.540;9.268;2023-01-26T00:08:12;97840.69;;;0.68;100.00
4814;BME280;15375;48.540;9.268;2023-01-26T00:10:39;97820.88;;;0.45;100.00
4814;BME280;15375;48.540;9.268;2023-01-26T00:13:06;97849.53;;;0.69;100.00
4814;BME280;15375;48.540;9.268;2023-01-26T00:15:33;97839.38;;;0.62;100.00
4814;BME280;15375;48.540;9.268;2023-01-26T00:17:59;97818.75;;;0.38;100.00
4814;BME280;15375;48.540;9.268;2023-01-26T00:20:25;97846.53;;;0.58;100.00
4814;BME280;15375;48.540;9.268;2023-01-26T00:22:51;97798.78;;;0.24;100.00
4814;BME280;15375;48.540;9.268;2023-01-26T00:25:16;97813.63;;;0.33;100.00
4814;BME280;15375;48.540;9.268;2023-01-26T00:27:41;97810.50;;;0.31;100.00
4814;BME280;15375;48.540;9.268;2023-01-26T00:30:07;97837.22;;;0.40;100.00
4814;BME280;15375;48.540;9.268;2023-01-26T00:32:36;97809.06;;;0.22;100.00
4814;BME280;15375;48.540;9.268;2023-01-26T00:35:03;97797.13;;;0.07;100.00
4814;BME280;15375;48.540;9.268;2023-01-26T00:37:28;97801.59;;;0.03;100.00
4814;BME280;15375;48.540;9.268;2023-01-26T00:39:54;97813.88;;;0.16;100.00
4814;BME280;15375;48.540;9.268;2023-01-26T00:42:19;97767.09;;;0.02;100.00
4814;BME280;15375;48.540;9.268;2023-01-26T00:44:46;97780.59;;;0.17;100.00
4814;BME280;15375;48.540;9.268;2023-01-26T00:47:12;97804.13;;;0.36;100.00
4814;BME280;15375;48.540;9.268;2023-01-26T00:49:38;97797.53;;;0.33;100.00
4814;BME280;15375;48.540;9.268;2023-01-26T00:52:03;97750.22;;;0.01;100.00
4814;BME280;15375;48.540;9.268;2023-01-26T00:54:30;97779.41;;;0.30;100.00
4814;BME280;15375;48.540;9.268;2023-01-26T00:56:55;97779.75;;;0.29;100.00
4814;BME280;15375;48.540;9.268;2023-01-26T00:59:21;97739.28;;;-0.06;100.00
4814;BME280;15375;48.540;9.268;2023-01-26T01:01:47;97743.03;;;0.05;100.00
4814;BME280;15375;48.540;9.268;2023-01-26T01:04:13;97771.59;;;0.25;100.00
4814;BME280;15375;48.540;9.268;2023-01-26T01:06:38;97788.16;;;0.27;100.00
4814;BME280;15375;48.540;9.268;2023-01-26T01:09:04;97762.34;;;0.23;100.00
4814;BME280;15375;48.540;9.268;2023-01-26T01:11:29;97776.72;;;0.30;100.00
4814;BME280;15375;48.540;9.268;2023-01-26T01:13:55;97792.31;;;0.25;100.00
4814;BME280;15375;48.540;9.268;2023-01-26T01:16:20;97757.78;;;0.11;100.00
4814;BME280;15375;48.540;9.268;2023-01-26T01:18:45;97765.06;;;0.11;100.00
4814;BME280;15375;48.540;9.268;2023-01-26T01:21:13;97782.25;;;0.22;100.00
4814;BME280;15375;48.540;9.268;2023-01-26T01:23:40;97714.03;;;-0.17;100.00
4814;BME280;15375;48.540;9.268;2023-01-26T01:26:06;97750.22;;;0.01;100.00
4814;BME280;15375;48.540;9.268;2023-01-26T01:28:32;97755.47;;;0.10;100.00
4814;BME280;15375;48.540;9.268;2023-01-26T01:30:58;97747.94;;;0.15;100.00
4814;BME280;15375;48.540;9.268;2023-01-26T01:33:23;97738.66;;;0.25;100.00
4814;BME280;15375;48.540;9.268;2023-01-26T01:36:00;97771.34;;;0.42;100.00
4814;BME280;15375;48.540;9.268;2023-01-26T01:38:26;97771.56;;;0.49;100.00
4814;BME280;15375;48.540;9.268;2023-01-26T01:40:53;97752.34;;;0.35;100.00
4814;BME280;15375;48.540;9.268;2023-01-26T01:43:19;97758.94;;;0.38;100.00
4814;BME280;15375;48.540;9.268;2023-01-26T01:45:49;97730.72;;;0.16;100.00
4814;BME280;15375;48.540;9.268;2023-01-26T01:50:47;97732.97;;;0.14;100.00
4814;BME280;15375;48.540;9.268;2023-01-26T01:53:17;97765.53;;;0.40;100.00
4814;BME280;15375;48.540;9.268;2023-01-26T01:55:50;97766.75;;;0.43;100.00
4814;BME280;15375;48.540;9.268;2023-01-26T01:58:17;97737.09;;;0.24;100.00
4814;BME280;15375;48.540;9.268;2023-01-26T02:00:43;97716.97;;;0.18;100.00
4814;BME280;15375;48.540;9.268;2023-01-26T02:03:09;97744.59;;;0.46;100.00
4814;BME280;15375;48.540;9.268;2023-01-26T02:05:44;97748.38;;;0.57;100.00
4814;BME280;15375;48.540;9.268;2023-01-26T02:08:15;97745.44;;;0.62;100.00
4814;BME280;15375;48.540;9.268;2023-01-26T02:10:43;97749.78;;;0.67;100.00
4814;BME280;15375;48.540;9.268;2023-01-26T02:13:10;97758.63;;;0.67;100.00
4814;BME280;15375;48.540;9.268;2023-01-26T02:15:36;97735.44;;;0.47;100.00
4814;BME280;15375;48.540;9.268;2023-01-26T02:18:03;97696.16;;;0.27;100.00
4814;BME280;15375;48.540;9.268;2023-01-26T02:28:21;97735.44;;;0.19;100.00
4814;BME280;15375;48.540;9.268;2023-01-26T02:30:47;97725.81;;;0.18;100.00
4814;BME280;15375;48.540;9.268;2023-01-26T02:33:21;97728.69;;;0.25;100.00
4814;BME280;15375;48.540;9.268;2023-01-26T02:35:47;97706.25;;;0.18;100.00
4814;BME280;15375;48.540;9.268;2023-01-26T02:38:12;97697.75;;;0.16;100.00
4814;BME280;15375;48.540;9.268;2023-01-26T02:40:46;97721.72;;;0.36;100.00
4814;BME280;15375;48.540;9.268;2023-01-26T02:43:12;97687.50;;;0.06;100.00
4814;BME280;15375;48.540;9.268;2023-01-26T02:45:39;97643.25;;;-0.16;100.00
4814;BME280;15375;48.540;9.268;2023-01-26T02:48:05;97706.13;;;0.26;100.00
4814;BME280;15375;48.540;9.268;2023-01-26T02:50:32;97693.38;;;0.23;100.00
4814;BME280;15375;48.540;9.268;2023-01-26T02:52:58;97672.00;;;-0.01;100.00
4814;BME280;15375;48.540;9.268;2023-01-26T02:55:24;97690.94;;;0.18;100.00
4814;BME280;15375;48.540;9.268;2023-01-26T02:58:01;97708.25;;;0.48;100.00
4814;BME280;15375;48.540;9.268;2023-01-26T03:00:33;97705.13;;;0.46;100.00
4814;BME280;15375;48.540;9.268;2023-01-26T03:03:09;97687.53;;;0.33;100.00
4814;BME280;15375;48.540;9.268;2023-01-26T03:05:36;97702.22;;;0.51;100.00
4814;BME280;15375;48.540;9.268;2023-01-26T03:08:01;97693.13;;;0.56;100.00
4814;BME280;15375;48.540;9.268;2023-01-26T03:10:30;97691.66;;;0.58;100.00
4814;BME280;15375;48.540;9.268;2023-01-26T03:12:55;97648.66;;;0.27;100.00
4814;BME280;15375;48.540;9.268;2023-01-26T03:15:20;97688.28;;;0.61;100.00
4814;BME280;15375;48.540;9.268;2023-01-26T03:18:07;97685.47;;;0.70;100.00
4814;BME280;15375;48.540;9.268;2023-01-26T03:20:53;97674.97;;;0.65;100.00
4814;BME280;15375;48.540;9.268;2023-01-26T03:23:36;97662.56;;;0.60;100.00
4814;BME280;15375;48.540;9.268;2023-01-26T03:26:20;97679.31;;;0.70;100.00
4814;BME280;15375;48.540;9.268;2023-01-26T03:29:04;97666.81;;;0.61;100.00
4814;BME280;15375;48.540;9.268;2023-01-26T03:31:30;97665.00;;;0.50;100.00
4814;BME280;15375;48.540;9.268;2023-01-26T03:33:55;97660.31;;;0.47;100.00
4814;BME280;15375;48.540;9.268;2023-01-26T03:36:20;97660.06;;;0.52;100.00
4814;BME280;15375;48.540;9.268;2023-01-26T03:38:46;97653.22;;;0.54;100.00
4814;BME280;15375;48.540;9.268;2023-01-26T03:41:11;97665.97;;;0.57;100.00
4814;BME280;15375;48.540;9.268;2023-01-26T03:43:55;97658.34;;;0.59;100.00
4814;BME280;15375;48.540;9.268;2023-01-26T03:46:39;97666.81;;;0.61;100.00
4814;BME280;15375;48.540;9.268;2023-01-26T03:49:23;97668.81;;;0.64;100.00
4814;BME280;15375;48.540;9.268;2023-01-26T03:52:07;97670.47;;;0.69;100.00
4814;BME280;15375;48.540;9.268;2023-01-26T03:54:51;97675.59;;;0.74;100.00
4814;BME280;15375;48.540;9.268;2023-01-26T03:57:35;97672.47;;;0.72;100.00
4814;BME280;15375;48.540;9.268;2023-01-26T04:00:00;97666.31;;;0.72;100.00
4814;BME280;15375;48.540;9.268;2023-01-26T04:02:26;97663.88;;;0.67;100.00
4814;BME280;15375;48.540;9.268;2023-01-26T04:05:10;97658.78;;;0.61;100.00
4814;BME280;15375;48.540;9.268;2023-01-26T04:07:54;97666.72;;;0.58;100.00
4814;BME280;15375;48.540;9.268;2023-01-26T04:10:37;97660.38;;;0.50;100.00
4814;BME280;15375;48.540;9.268;2023-01-26T04:13:03;97671.81;;;0.47;100.00
4814;BME280;15375;48.540;9.268;2023-01-26T04:15:47;97657.94;;;0.45;100.00
4814;BME280;15375;48.540;9.268;2023-01-26T04:18:31;97659.28;;;0.51;100.00
4814;BME280;15375;48.540;9.268;2023-01-26T04:21:15;97667.50;;;0.58;100.00
4814;BME280;15375;48.540;9.268;2023-01-26T04:23:56;97675.47;;;0.71;100.00
4814;BME280;15375;48.540;9.268;2023-01-26T04:26:24;97661.88;;;0.63;100.00
4814;BME280;15375;48.540;9.268;2023-01-26T04:28:49;97652.78;;;0.52;100.00
4814;BME280;15375;48.540;9.268;2023-01-26T04:31:15;97666.13;;;0.64;100.00
4814;BME280;15375;48.540;9.268;2023-01-26T04:33:41;97672.97;;;0.62;100.00
4814;BME280;15375;48.540;9.268;2023-01-26T04:36:07;97655.91;;;0.54;100.00
4814;BME280;15375;48.540;9.268;2023-01-26T04:38:33;97638.22;;;0.53;100.00
4814;BME280;15375;48.540;9.268;2023-01-26T04:40:58;97642.13;;;0.56;100.00
4814;BME280;15375;48.540;9.268;2023-01-26T04:43:24;97639.44;;;0.56;100.00
4814;BME280;15375;48.540;9.268;2023-01-26T04:46:00;97652.38;;;0.66;100.00
4814;BME280;15375;48.540;9.268;2023-01-26T04:48:27;97634.69;;;0.49;100.00
4814;BME280;15375;48.540;9.268;2023-01-26T04:50:57;97607.03;;;0.33;100.00
4814;BME280;15375;48.540;9.268;2023-01-26T04:53:23;97600.38;;;0.27;100.00
4814;BME280;15375;48.540;9.268;2023-01-26T04:55:49;97601.84;;;0.25;100.00
4814;BME280;15375;48.540;9.268;2023-01-26T04:58:14;97609.03;;;0.36;100.00
4814;BME280;15375;48.540;9.268;2023-01-26T05:00:40;97591.72;;;0.34;100.00
4814;BME280;15375;48.540;9.268;2023-01-26T05:03:05;97602.47;;;0.34;100.00
4814;BME280;15375;48.540;9.268;2023-01-26T05:05:35;97588.69;;;0.20;100.00
4814;BME280;15375;48.540;9.268;2023-01-26T05:08:01;97579.22;;;0.10;100.00
4814;BME280;15375;48.540;9.268;2023-01-26T05:10:27;97633.63;;;0.38;100.00
4814;BME280;15375;48.540;9.268;2023-01-26T05:12:52;97608.31;;;0.24;100.00
4814;BME280;15375;48.540;9.268;2023-01-26T05:15:18;97601.22;;;0.16;100.00
4814;BME280;15375;48.540;9.268;2023-01-26T05:17:43;97641.84;;;0.45;100.00
4814;BME280;15375;48.540;9.268;2023-01-26T05:20:09;97588.66;;;0.04;100.00
4814;BME280;15375;48.540;9.268;2023-01-26T05:22:35;97639.41;;;0.40;100.00
4814;BME280;15375;48.540;9.268;2023-01-26T05:25:00;97634.66;;;0.34;100.00
4814;BME280;15375;48.540;9.268;2023-01-26T05:27:26;97604.00;;;0.19;100.00
4814;BME280;15375;48.540;9.268;2023-01-26T05:29:51;97635.25;;;0.27;100.00
4814;BME280;15375;48.540;9.268;2023-01-26T05:32:17;97628.13;;;0.19;100.00
4814;BME280;15375;48.540;9.268;2023-01-26T05:34:43;97624.41;;;0.24;100.00
4814;BME280;15375;48.540;9.268;2023-01-26T05:37:08;97651.13;;;0.48;100.00
4814;BME280;15375;48.540;9.268;2023-01-26T05:39:34;97609.38;;;0.19;100.00
4814;BME280;15375;48.540;9.268;2023-01-26T05:41:59;97622.53;;;0.24;100.00
4814;BME280;15375;48.540;9.268;2023-01-26T05:44:24;97633.44;;;0.31;100.00
4814;BME280;15375;48.540;9.268;2023-01-26T05:46:50;97612.63;;;0.13;100.00
4814;BME280;15375;48.540;9.268;2023-01-26T05:49:16;97649.34;;;0.24;100.00
4814;BME280;15375;48.540;9.268;2023-01-26T05:51:41;97632.84;;;0.10;100.00
4814;BME280;15375;48.540;9.268;2023-01-26T05:54:07;97625.06;;;0.05;100.00
4814;BME280;15375;48.540;9.268;2023-01-26T05:56:32;97640.91;;;0.10;100.00
4814;BME280;15375;48.540;9.268;2023-01-26T05:58:57;97644.31;;;0.23;100.00
4814;BME280;15375;48.540;9.268;2023-01-26T06:01:23;97647.53;;;0.28;100.00
4814;BME280;15375;48.540;9.268;2023-01-26T06:03:48;97630.16;;;0.10;100.00
4814;BME280;15375;48.540;9.268;2023-01-26T06:06:14;97603.91;;;-0.12;100.00
4814;BME280;15375;48.540;9.268;2023-01-26T06:08:39;97626.97;;;0.05;100.00
4814;BME280;15375;48.540;9.268;2023-01-26T06:11:04;97617.66;;;-0.14;100.00
4814;BME280;15375;48.540;9.268;2023-01-26T06:13:30;97658.06;;;0.21;100.00
4814;BME280;15375;48.540;9.268;2023-01-26T06:15:55;97621.50;;;0.01;100.00
4814;BME280;15375;48.540;9.268;2023-01-26T06:18:20;97654.72;;;0.24;100.00
4814;BME280;15375;48.540;9.268;2023-01-26T06:20:46;97635.25;;;-0.01;100.00
4814;BME280;15375;48.540;9.268;2023-01-26T06:23:11;97657.59;;;0.04;100.00
4814;BME280;15375;48.540;9.268;2023-01-26T06:25:37;97656.28;;;-0.03;100.00
4814;BME280;15375;48.540;9.268;2023-01-26T06:28:05;97614.03;;;-0.33;100.00
4814;BME280;15375;48.540;9.268;2023-01-26T06:30:31;97665.97;;;0.02;100.00
4814;BME280;15375;48.540;9.268;2023-01-26T06:32:57;97664.41;;;0.01;100.00
4814;BME280;15375;48.540;9.268;2023-01-26T06:35:22;97633.75;;;-0.14;100.00
4814;BME280;15375;48.540;9.268;2023-01-26T06:37:48;97619.84;;;-0.31;100.00
4814;BME280;15375;48.540;9.268;2023-01-26T06:40:14;97568.53;;;-0.57;100.00
4814;BME280;15375;48.540;9.268;2023-01-26T06:42:48;97650.56;;;-0.01;100.00
4814;BME280;15375;48.540;9.268;2023-01-26T06:45:15;97641.19;;;-0.07;100.00
4814;BME280;15375;48.540;9.268;2023-01-26T06:47:47;97616.13;;;-0.27;100.00
4814;BME280;15375;48.540;9.268;2023-01-26T06:50:18;97644.22;;;-0.09;100.00
4814;BME280;15375;48.540;9.268;2023-01-26T06:52:46;97655.69;;;0.04;100.00
4814;BME280;15375;48.540;9.268;2023-01-26T06:55:19;97608.28;;;-0.20;100.00
4814;BME280;15375;48.540;9.268;2023-01-26T06:57:46;97607.59;;;-0.17;100.00
4814;BME280;15375;48.540;9.268;2023-01-26T07:00:12;97644.13;;;0.16;100.00
4814;BME280;15375;48.540;9.268;2023-01-26T07:02:38;97652.31;;;0.35;100.00
4814;BME280;15375;48.540;9.268;2023-01-26T07:05:04;97630.66;;;0.28;100.00
4814;BME280;15375;48.540;9.268;2023-01-26T07:07:30;97631.59;;;0.20;100.00
4814;BME280;15375;48.540;9.268;2023-01-26T07:09:55;97647.69;;;0.20;100.00
4814;BME280;15375;48.540;9.268;2023-01-26T07:12:20;97639.25;;;0.06;100.00
4814;BME280;15375;48.540;9.268;2023-01-26T07:14:46;97639.69;;;0.08;100.00
4814;BME280;15375;48.540;9.268;2023-01-26T07:17:11;97625.31;;;0.00;100.00
4814;BME280;15375;48.540;9.268;2023-01-26T07:19:37;97652.53;;;0.14;100.00
4814;BME280;15375;48.540;9.268;2023-01-26T07:22:02;97620.63;;;-0.03;100.00
4814;BME280;15375;48.540;9.268;2023-01-26T07:24:28;97604.69;;;-0.12;100.00
4814;BME280;15375;48.540;9.268;2023-01-26T07:26:54;97668.13;;;0.24;100.00
4814;BME280;15375;48.540;9.268;2023-01-26T07:29:19;97639.16;;;0.02;100.00
4814;BME280;15375;48.540;9.268;2023-01-26T07:31:45;97653.09;;;0.08;100.00
4814;BME280;15375;48.540;9.268;2023-01-26T07:34:10;97661.69;;;0.13;100.00
4814;BME280;15375;48.540;9.268;2023-01-26T07:36:36;97646.66;;;-0.04;100.00
4814;BME280;15375;48.540;9.268;2023-01-26T07:39:01;97657.59;;;0.04;100.00
4814;BME280;15375;48.540;9.268;2023-01-26T07:41:26;97650.38;;;-0.08;100.00
4814;BME280;15375;48.540;9.268;2023-01-26T07:43:52;97615.81;;;-0.37;100.00
4814;BME280;15375;48.540;9.268;2023-01-26T07:46:17;97656.53;;;-0.08;100.00
4814;BME280;15375;48.540;9.268;2023-01-26T07:48:43;97632.75;;;-0.21;100.00
4814;BME280;15375;48.540;9.268;2023-01-26T07:51:08;97664.56;;;-0.08;100.00
4814;BME280;15375;48.540;9.268;2023-01-26T07:53:35;97656.28;;;-0.15;100.00
4814;BME280;15375;48.540;9.268;2023-01-26T07:56:09;97660.13;;;-0.16;100.00
4814;BME280;15375;48.540;9.268;2023-01-26T07:58:35;97629.91;;;-0.40;100.00
4814;BME280;15375;48.540;9.268;2023-01-26T08:01:11;97669.63;;;-0.18;100.00
4814;BME280;15375;48.540;9.268;2023-01-26T08:03:37;97654.22;;;-0.33;100.00
4814;BME280;15375;48.540;9.268;2023-01-26T08:06:03;97659.78;;;-0.26;100.00
4814;BME280;15375;48.540;9.268;2023-01-26T08:08:29;97638.03;;;-0.37;100.00
4814;BME280;15375;48.540;9.268;2023-01-26T08:10:58;97666.03;;;-0.22;100.00
4814;BME280;15375;48.540;9.268;2023-01-26T08:13:28;97643.72;;;-0.26;100.00
4814;BME280;15375;48.540;9.268;2023-01-26T08:15:54;97636.91;;;-0.24;100.00
4814;BME280;15375;48.540;9.268;2023-01-26T08:18:19;97634.75;;;-0.18;100.00
4814;BME280;15375;48.540;9.268;2023-01-26T08:20:51;97646.13;;;-0.09;100.00
4814;BME280;15375;48.540;9.268;2023-01-26T08:23:17;97626.63;;;-0.22;100.00
4814;BME280;15375;48.540;9.268;2023-01-26T08:25:43;97647.44;;;-0.03;100.00
4814;BME280;15375;48.540;9.268;2023-01-26T08:28:08;97653.25;;;-0.01;100.00
4814;BME280;15375;48.540;9.268;2023-01-26T08:30:34;97608.91;;;-0.38;100.00
4814;BME280;15375;48.540;9.268;2023-01-26T08:33:00;97636.78;;;-0.27;100.00
4814;BME280;15375;48.540;9.268;2023-01-26T08:35:26;97635.78;;;-0.35;100.00
4814;BME280;15375;48.540;9.268;2023-01-26T08:37:51;97632.88;;;-0.30;100.00
4814;BME280;15375;48.540;9.268;2023-01-26T08:40:16;97627.75;;;-0.35;100.00
4814;BME280;15375;48.540;9.268;2023-01-26T08:42:42;97641.81;;;-0.26;100.00
4814;BME280;15375;48.540;9.268;2023-01-26T08:45:07;97611.50;;;-0.54;100.00
4814;BME280;15375;48.540;9.268;2023-01-26T08:47:33;97604.38;;;-0.62;100.00
4814;BME280;15375;48.540;9.268;2023-01-26T08:49:59;97616.91;;;-0.66;100.00
4814;BME280;15375;48.540;9.268;2023-01-26T08:52:24;97608.28;;;-0.59;100.00
4814;BME280;15375;48.540;9.268;2023-01-26T08:54:49;97607.84;;;-0.61;100.00
4814;BME280;15375;48.540;9.268;2023-01-26T08:57:15;97645.41;;;-0.34;100.00
4814;BME280;15375;48.540;9.268;2023-01-26T08:59:40;97642.41;;;-0.44;100.00
4814;BME280;15375;48.540;9.268;2023-01-26T09:02:08;97615.22;;;-0.58;100.00
4814;BME280;15375;48.540;9.268;2023-01-26T09:04:33;97603.03;;;-0.56;100.00
4814;BME280;15375;48.540;9.268;2023-01-26T09:06:58;97621.63;;;-0.35;100.00
4814;BME280;15375;48.540;9.268;2023-01-26T09:09:24;97616.41;;;-0.44;100.00
4814;BME280;15375;48.540;9.268;2023-01-26T09:11:49;97584.84;;;-0.50;100.00
4814;BME280;15375;48.540;9.268;2023-01-26T09:14:14;97604.34;;;-0.38;100.00
4814;BME280;15375;48.540;9.268;2023-01-26T09:16:40;97630.31;;;-0.26;100.00
4814;BME280;15375;48.540;9.268;2023-01-26T09:19:05;97605.09;;;-0.37;100.00
4814;BME280;15375;48.540;9.268;2023-01-26T09:21:30;97616.78;;;-0.30;100.00
4814;BME280;15375;48.540;9.268;2023-01-26T09:23:56;97628.06;;;-0.24;100.00
4814;BME280;15375;48.540;9.268;2023-01-26T09:26:21;97639.44;;;-0.15;100.00
4814;BME280;15375;48.540;9.268;2023-01-26T09:28:53;97606.75;;;-0.21;100.00
4814;BME280;15375;48.540;9.268;2023-01-26T09:31:18;97622.16;;;-0.30;100.00
4814;BME280;15375;48.540;9.268;2023-01-26T09:33:43;97644.25;;;-0.21;100.00
4814;BME280;15375;48.540;9.268;2023-01-26T09:36:10;97651.53;;;-0.21;100.00
4814;BME280;15375;48.540;9.268;2023-01-26T09:38:36;97635.28;;;-0.40;100.00
4814;BME280;15375;48.540;9.268;2023-01-26T09:43:49;97646.75;;;-0.28;100.00
4814;BME280;15375;48.540;9.268;2023-01-26T09:46:22;97655.31;;;-0.22;100.00
4814;BME280;15375;48.540;9.268;2023-01-26T09:49:12;97656.75;;;-0.13;100.00
4814;BME280;15375;48.540;9.268;2023-01-26T09:54:45;97646.28;;;-0.30;100.00
4814;BME280;15375;48.540;9.268;2023-01-26T09:57:35;97637.13;;;-0.29;100.00
4814;BME280;15375;48.540;9.268;2023-01-26T10:00:06;97656.06;;;-0.10;100.00
4814;BME280;15375;48.540;9.268;2023-01-26T10:05:13;97637.25;;;-0.25;100.00
4814;BME280;15375;48.540;9.268;2023-01-26T10:07:43;97644.69;;;-0.19;100.00
4814;BME280;15375;48.540;9.268;2023-01-26T10:10:14;97660.53;;;-0.14;100.00
4814;BME280;15375;48.540;9.268;2023-01-26T10:12:40;97609.59;;;-0.41;100.00
4814;BME280;15375;48.540;9.268;2023-01-26T10:17:55;97604.47;;;-0.46;100.00
4814;BME280;15375;48.540;9.268;2023-01-26T10:22:51;97659.97;;;-0.07;100.00
4814;BME280;15375;48.540;9.268;2023-01-26T10:25:29;97635.00;;;-0.23;100.00
4814;BME280;15375;48.540;9.268;2023-01-26T10:27:57;97650.19;;;-0.15;100.00
4814;BME280;15375;48.540;9.268;2023-01-26T10:30:23;97623.44;;;-0.12;100.00
4814;BME280;15375;48.540;9.268;2023-01-26T10:32:52;97652.22;;;0.04;100.00
4814;BME280;15375;48.540;9.268;2023-01-26T10:35:23;97657.22;;;0.05;100.00
4814;BME280;15375;48.540;9.268;2023-01-26T10:37:49;97655.44;;;0.09;100.00
4814;BME280;15375;48.540;9.268;2023-01-26T10:40:17;97657.94;;;0.02;100.00
4814;BME280;15375;48.540;9.268;2023-01-26T10:42:54;97654.03;;;-0.01;100.00
4814;BME280;15375;48.540;9.268;2023-01-26T10:45:31;97635.91;;;-0.31;100.00
4814;BME280;15375;48.540;9.268;2023-01-26T10:48:13;97634.34;;;-0.32;100.00
4814;BME280;15375;48.540;9.268;2023-01-26T10:50:40;97660.13;;;-0.16;100.00
4814;BME280;15375;48.540;9.268;2023-01-26T10:53:14;97652.81;;;-0.03;100.00
4814;BME280;15375;48.540;9.268;2023-01-26T10:55:39;97584.59;;;-0.57;100.00
4814;BME280;15375;48.540;9.268;2023-01-26T10:58:35;97655.38;;;-0.07;100.00
4814;BME280;15375;48.540;9.268;2023-01-26T11:01:03;97636.53;;;-0.22;100.00
4814;BME280;15375;48.540;9.268;2023-01-26T11:03:29;97647.56;;;-0.12;100.00
4814;BME280;15375;48.540;9.268;2023-01-26T11:08:37;97643.91;;;-0.19;100.00
4814;BME280;15375;48.540;9.268;2023-01-26T11:11:04;97640.69;;;-0.25;100.00
4814;BME280;15375;48.540;9.268;2023-01-26T11:13:31;97629.88;;;-0.28;100.00
4814;BME280;15375;48.540;9.268;2023-01-26T11:16:12;97627.31;;;-0.37;100.00
4814;BME280;15375;48.540;9.268;2023-01-26T11:19:10;97644.59;;;-0.22;100.00
4814;BME280;15375;48.540;9.268;2023-01-26T11:21:44;97650.53;;;-0.29;100.00
4814;BME280;15375;48.540;9.268;2023-01-26T11:24:19;97602.03;;;-0.63;100.00
4814;BME280;15375;48.540;9.268;2023-01-26T11:35:12;97627.78;;;-0.07;100.00
4814;BME280;15375;48.540;9.268;2023-01-26T11:59:38;97618.72;;;-0.30;100.00
4814;BME280;15375;48.540;9.268;2023-01-26T12:04:52;97569.16;;;-0.36;100.00
4814;BME280;15375;48.540;9.268;2023-01-26T12:07:33;97600.53;;;-0.09;100.00
4814;BME280;15375;48.540;9.268;2023-01-26T12:10:16;97556.19;;;-0.34;100.00
4814;BME280;15375;48.540;9.268;2023-01-26T12:12:48;97602.19;;;-0.05;100.00
4814;BME280;15375;48.540;9.268;2023-01-26T12:15:20;97573.16;;;-0.30;100.00
4814;BME280;15375;48.540;9.268;2023-01-26T12:20:43;97600.59;;;-0.21;100.00
4814;BME280;15375;48.540;9.268;2023-01-26T12:23:25;97590.97;;;-0.22;100.00
4814;BME280;15375;48.540;9.268;2023-01-26T12:26:09;97562.56;;;-0.39;100.00
4814;BME280;15375;48.540;9.268;2023-01-26T12:31:31;97576.47;;;-0.21;100.00
4814;BME280;15375;48.540;9.268;2023-01-26T12:33:59;97570.72;;;-0.35;100.00
4814;BME280;15375;48.540;9.268;2023-01-26T12:42:18;97571.16;;;-0.33;100.00
4814;BME280;15375;48.540;9.268;2023-01-26T12:44:59;97570.31;;;-0.49;100.00
4814;BME280;15375;48.540;9.268;2023-01-26T12:53:03;97561.41;;;-0.53;100.00
4814;BME280;15375;48.540;9.268;2023-01-26T12:55:39;97566.41;;;-0.52;100.00
4814;BME280;15375;48.540;9.268;2023-01-26T12:58:17;97556.72;;;-0.56;100.00
4814;BME280;15375;48.540;9.268;2023-01-26T13:00:54;97545.25;;;-0.69;100.00
4814;BME280;15375;48.540;9.268;2023-01-26T13:03:24;97545.38;;;-0.66;100.00
4814;BME280;15375;48.540;9.268;2023-01-26T13:08:45;97557.81;;;-0.45;100.00
4814;BME280;15375;48.540;9.268;2023-01-26T13:16:52;97555.59;;;-0.55;100.00
4814;BME280;15375;48.540;9.268;2023-01-26T13:24:58;97561.25;;;-0.45;100.00
4814;BME280;15375;48.540;9.268;2023-01-26T13:30:03;97553.13;;;-0.48;100.00
4814;BME280;15375;48.540;9.268;2023-01-26T13:35:16;97552.22;;;-0.40;100.00
4814;BME280;15375;48.540;9.268;2023-01-26T13:37:52;97556.88;;;-0.37;100.00
4814;BME280;15375;48.540;9.268;2023-01-26T13:40:34;97549.09;;;-0.54;100.00
4814;BME280;15375;48.540;9.268;2023-01-26T13:48:42;97558.28;;;-0.55;100.00
4814;BME280;15375;48.540;9.268;2023-01-26T13:51:26;97543.78;;;-0.67;100.00
4814;BME280;15375;48.540;9.268;2023-01-26T13:59:16;97539.31;;;-0.63;100.00
4814;BME280;15375;48.540;9.268;2023-01-26T14:01:48;97527.53;;;-0.46;100.00
4814;BME280;15375;48.540;9.268;2023-01-26T14:07:04;97554.72;;;-0.32;100.00
4814;BME280;15375;48.540;9.268;2023-01-26T14:09:32;97551.72;;;-0.30;100.00
4814;BME280;15375;48.540;9.268;2023-01-26T14:12:04;97549.84;;;-0.42;100.00
4814;BME280;15375;48.540;9.268;2023-01-26T14:14:35;97556.44;;;-0.39;100.00
4814;BME280;15375;48.540;9.268;2023-01-26T14:17:07;97566.28;;;-0.43;100.00
4814;BME280;15375;48.540;9.268;2023-01-26T14:19:38;97562.63;;;-0.51;100.00
4814;BME280;15375;48.540;9.268;2023-01-26T14:22:10;97569.03;;;-0.40;100.00
4814;BME280;15375;48.540;9.268;2023-01-26T14:24:47;97569.09;;;-0.24;100.00
4814;BME280;15375;48.540;9.268;2023-01-26T14:27:28;97535.28;;;-0.56;100.00
4814;BME280;15375;48.540;9.268;2023-01-26T14:29:54;97540.09;;;-0.62;100.00
4814;BME280;15375;48.540;9.268;2023-01-26T14:32:20;97536.88;;;-0.68;100.00
4814;BME280;15375;48.540;9.268;2023-01-26T14:34:54;97564.88;;;-0.53;100.00
4814;BME280;15375;48.540;9.268;2023-01-26T14:37:22;97571.13;;;-0.61;100.00
4814;BME280;15375;48.540;9.268;2023-01-26T14:39:48;97576.34;;;-0.52;100.00
4814;BME280;15375;48.540;9.268;2023-01-26T14:42:17;97522.63;;;-0.84;100.00
4814;BME280;15375;48.540;9.268;2023-01-26T14:44:43;97579.25;;;-0.45;100.00
4814;BME280;15375;48.540;9.268;2023-01-26T14:47:28;97580.66;;;-0.36;100.00
4814;BME280;15375;48.540;9.268;2023-01-26T14:50:03;97557.16;;;-0.54;100.00
4814;BME280;15375;48.540;9.268;2023-01-26T14:52:38;97578.69;;;-0.51;100.00
4814;BME280;15375;48.540;9.268;2023-01-26T14:55:23;97561.72;;;-0.55;100.00
4814;BME280;15375;48.540;9.268;2023-01-26T14:57:50;97560.59;;;-0.54;100.00
4814;BME280;15375;48.540;9.268;2023-01-26T15:00:24;97587.47;;;-0.38;100.00
4814;BME280;15375;48.540;9.268;2023-01-26T15:02:53;97570.41;;;-0.46;100.00
4814;BME280;15375;48.540;9.268;2023-01-26T15:05:22;97562.31;;;-0.61;100.00